Terminal Aerodrome Forecast
Issued by NWS

Home | Current Version | Previous Version | Graphics & Text | Print | Product List | Glossary On
Versions: 1 2 3 4 5 6 7 8 9 10 11 12 13 14 15 16 17 18 19 20 21
000
FTUS43 KBIS 261100
TAFMOT
TAF
KMOT 261132Z 2612/2712 33007KT P6SM -SHSN OVC012
      TEMPO 2612/2615 5SM -SHSN OVC009
     FM261500 30008KT P6SM -SHSN OVC015
      TEMPO 2615/2617 SCT015 BKN035
     FM261700 29006KT P6SM SCT020 SCT180
     FM270200 23004KT P6SM SCT015 BKN035=

USA.gov is the U.S. government's official web portal to all federal, state and local government web resources and services.